Terminal Aerodrome Forecast
Issued by NWS Corpus Christi, TX

Home | Current Version | Previous Version | Text Only | Print | Product List | Glossary On
Versions: 1 2 3 4 5 6 7 8 9 10 11 12
699
FTUS44 KCRP 070530
TAFCRP
TAF
KCRP 070530Z 0706/0806 02004KT P6SM SKC
     FM071400 10006KT P6SM SCT250
     FM072000 17008KT P6SM SCT250=

USA.gov is the U.S. government's official web portal to all federal, state and local government web resources and services.